Time;durP1;ratioP1;P1;durP2;ratioP2;P2;SDS_P1;SDS_P2;PMS_P1;PMS_P2;Temp;Humidity;BMP_temperature;BMP_pressure;BME280_temperature;BME280_humidity;BME280_pressure;Samples;Min_cycle;Max_cycle;Signal;HPM_P1;HPM_P2
2023/05/23 00:00:59;;;;;;;17.13;15.75;;;16.10;1.00;;;;;;6119425;23;20168;-80
2023/05/23 00:03:25;;;;;;;16.48;14.98;;;16.50;24.70;;;;;;6146161;23;20159;-82
2023/05/23 00:05:51;;;;;;;18.58;17.00;;;16.10;57.50;;;;;;6119177;23;20278;-80
2023/05/23 00:08:17;;;;;;;19.00;17.33;;;16.10;89.30;;;;;;6119261;23;20597;-82
2023/05/23 00:10:43;;;;;;;20.25;18.55;;;16.10;99.90;;;;;;6119178;23;20175;-80
2023/05/23 00:13:11;;;;;;;19.17;17.50;;;16.00;99.90;;;;;;6119467;23;20163;-80
2023/05/23 00:15:37;;;;;;;18.30;16.70;;;16.00;99.90;;;;;;6118969;23;20485;-81
2023/05/23 00:18:03;;;;;;;18.80;17.30;;;16.00;99.90;;;;;;6145534;23;20162;-80
2023/05/23 00:20:29;;;;;;;19.42;17.73;;;16.10;99.90;;;;;;6119212;23;20217;-81
2023/05/23 00:22:57;;;;;;;18.92;17.00;;;16.00;99.90;;;;;;6120044;23;20198;-81
2023/05/23 00:25:23;;;;;;;20.45;18.75;;;16.00;99.90;;;;;;6145497;23;20164;-81
2023/05/23 00:27:49;;;;;;;19.48;17.83;;;16.10;99.90;;;;;;6119491;23;20196;-82
2023/05/23 00:30:15;;;;;;;19.83;18.13;;;16.10;99.90;;;;;;6145373;23;20251;-80
2023/05/23 00:32:41;;;;;;;18.27;16.67;;;16.00;99.90;;;;;;6145047;23;20159;-81
2023/05/23 00:35:07;;;;;;;22.58;20.77;;;16.00;99.90;;;;;;6118926;23;20163;-81
2023/05/23 00:37:33;;;;;;;21.02;19.13;;;16.00;99.90;;;;;;6144878;23;20230;-80
2023/05/23 00:39:59;;;;;;;20.35;18.65;;;15.90;99.90;;;;;;6145374;23;20590;-80
2023/05/23 00:42:24;;;;;;;22.85;20.92;;;15.90;99.90;;;;;;6118503;23;20168;-80
2023/05/23 00:44:50;;;;;;;25.17;22.88;;;15.90;99.90;;;;;;6118604;23;20464;-81
2023/05/23 00:47:16;;;;;;;24.67;22.45;;;15.90;99.90;;;;;;6145569;23;20639;-80
2023/05/23 00:49:42;;;;;;;23.52;21.42;;;15.80;99.90;;;;;;6144891;23;20175;-80
2023/05/23 00:52:08;;;;;;;26.42;24.05;;;15.80;99.90;;;;;;6118680;23;20159;-81
2023/05/23 00:54:35;;;;;;;28.30;25.67;;;15.80;99.90;;;;;;6118400;23;20190;-80
2023/05/23 00:57:01;;;;;;;28.38;25.85;;;15.80;99.90;;;;;;6144758;23;20155;-80
2023/05/23 00:59:27;;;;;;;29.25;26.25;;;15.70;99.90;;;;;;6118873;23;20294;-80
2023/05/23 01:01:56;;;;;;;29.10;26.40;;;15.80;99.90;;;;;;6118600;23;20622;-80
2023/05/23 01:04:25;;;;;;;28.88;26.25;;;15.80;99.90;;;;;;6118847;23;20164;-81
2023/05/23 01:06:53;;;;;;;28.15;25.63;;;15.90;99.90;;;;;;6119255;23;20191;-80
2023/05/23 01:09:22;;;;;;;31.67;28.88;;;15.90;99.90;;;;;;6119167;23;20207;-81
2023/05/23 01:12:11;;;;;;;32.50;29.33;;;16.00;99.90;;;;;;6118949;23;20238;-81
2023/05/23 01:15:11;;;;;;;30.98;28.08;;;15.90;99.90;;;;;;6051474;23;20159;-80
2023/05/23 01:18:06;;;;;;;30.15;27.20;;;15.90;99.90;;;;;;6111724;23;20218;-80
2023/05/23 01:20:58;;;;;;;33.65;30.42;;;15.90;99.90;;;;;;6145583;23;20266;-80
2023/05/23 01:24:06;;;;;;;33.38;30.20;;;16.20;99.90;;;;;;6145191;23;20585;-83
2023/05/23 01:26:50;;;;;;;33.08;29.90;;;15.80;99.90;;;;;;6145251;23;20714;-80
2023/05/23 01:29:24;;;;;;;39.38;35.15;;;15.90;99.90;;;;;;6120964;23;20575;-81
2023/05/23 01:31:53;;;;;;;34.72;31.42;;;16.00;99.90;;;;;;6120833;23;20167;-81
2023/05/23 01:34:20;;;;;;;33.67;30.23;;;16.10;99.90;;;;;;6146756;23;20159;-80
2023/05/23 01:36:49;;;;;;;38.33;34.53;;;16.10;99.90;;;;;;6146614;23;20167;-80
2023/05/23 01:39:15;;;;;;;34.17;30.83;;;16.20;99.90;;;;;;6120347;23;20525;-80
2023/05/23 01:41:41;;;;;;;37.00;33.38;;;16.20;99.90;;;;;;6147044;23;20533;-80
2023/05/23 01:44:07;;;;;;;34.55;31.25;;;16.20;99.90;;;;;;6120134;23;20164;-80
2023/05/23 01:46:34;;;;;;;35.53;32.15;;;16.10;99.90;;;;;;6146958;23;20263;-80
2023/05/23 01:49:03;;;;;;;33.65;30.42;;;16.10;99.90;;;;;;6120995;23;20186;-81
2023/05/23 01:51:29;;;;;;;32.13;29.02;;;16.00;99.90;;;;;;6121101;23;20441;-79
2023/05/23 01:53:56;;;;;;;32.25;29.17;;;16.00;99.20;;;;;;6120011;23;20505;-81
2023/05/23 01:56:22;;;;;;;30.17;27.48;;;16.50;73.20;;;;;;6147470;23;20163;-80
2023/05/23 01:58:47;;;;;;;29.42;26.73;;;16.00;65.40;;;;;;6146887;23;20179;-83
2023/05/23 02:01:14;;;;;;;30.08;27.27;;;16.00;69.50;;;;;;6120513;23;20175;-83
2023/05/23 02:03:39;;;;;;;29.65;26.75;;;15.90;85.80;;;;;;6146981;23;20166;-80
2023/05/23 02:06:05;;;;;;;29.55;26.75;;;15.90;82.90;;;;;;6120315;23;20188;-80
2023/05/23 02:08:30;;;;;;;29.48;26.48;;;15.80;62.00;;;;;;6120440;23;20164;-80
2023/05/23 02:10:56;;;;;;;30.15;27.25;;;15.70;29.40;;;;;;6120307;23;20194;-80
2023/05/23 02:13:22;;;;;;;31.60;28.40;;;15.70;26.40;;;;;;6120328;23;20159;-80
2023/05/23 02:15:47;;;;;;;30.25;27.33;;;15.60;48.30;;;;;;6120016;23;20163;-80
2023/05/23 02:18:13;;;;;;;30.38;27.40;;;15.50;77.30;;;;;;6120279;23;20208;-82
2023/05/23 02:20:39;;;;;;;32.38;28.98;;;15.30;97.40;;;;;;6146413;23;20183;-81
2023/05/23 02:23:05;;;;;;;30.73;27.83;;;15.90;99.90;;;;;;6147516;23;20156;-80
2023/05/23 02:25:31;;;;;;;33.15;29.73;;;15.40;99.90;;;;;;6120209;23;20186;-81
2023/05/23 02:27:56;;;;;;;32.65;29.30;;;15.60;99.90;;;;;;6120560;23;20195;-81
2023/05/23 02:30:22;;;;;;;29.30;26.50;;;15.30;99.90;;;;;;6146834;23;20176;-80
2023/05/23 02:32:47;;;;;;;31.77;28.55;;;15.30;99.90;;;;;;6120611;23;20163;-81
2023/05/23 02:35:13;;;;;;;31.95;28.75;;;16.10;99.90;;;;;;6146798;23;20152;-80
2023/05/23 02:37:38;;;;;;;31.85;28.75;;;15.50;99.90;;;;;;6146634;23;20214;-80
2023/05/23 02:40:06;;;;;;;33.10;29.75;;;15.40;99.90;;;;;;6119999;23;20194;-80
2023/05/23 02:42:32;;;;;;;32.17;29.05;;;15.40;99.90;;;;;;6120584;23;20160;-81
2023/05/23 02:44:58;;;;;;;32.72;29.50;;;15.50;99.90;;;;;;6120829;23;20170;-80
2023/05/23 02:47:23;;;;;;;32.83;29.42;;;15.50;99.90;;;;;;6120592;23;20192;-81
2023/05/23 02:49:49;;;;;;;36.38;32.50;;;15.60;99.90;;;;;;6146768;23;20175;-82
2023/05/23 02:52:15;;;;;;;33.63;30.23;;;15.60;92.50;;;;;;6120094;23;20247;-80
2023/05/23 02:54:41;;;;;;;40.28;36.13;;;16.00;71.90;;;;;;6120761;23;20251;-82
2023/05/23 02:57:06;;;;;;;43.33;38.58;;;15.80;34.50;;;;;;6122130;23;20232;-78
2023/05/23 02:59:32;;;;;;;49.63;44.28;;;15.70;1.00;;;;;;6120992;23;20272;-80
2023/05/23 03:01:58;;;;;;;47.03;42.05;;;15.60;1.00;;;;;;6121028;23;20499;-79
2023/05/23 03:04:24;;;;;;;48.35;43.15;;;15.90;1.00;;;;;;6147046;23;20588;-82
2023/05/23 03:06:53;;;;;;;53.80;47.13;;;15.70;1.00;;;;;;6147034;23;20187;-80
2023/05/23 03:09:18;;;;;;;50.65;45.10;;;15.70;1.00;;;;;;6121237;23;20186;-81
2023/05/23 03:11:44;;;;;;;54.88;48.88;;;15.60;1.00;;;;;;6120347;23;20164;-79
2023/05/23 03:14:10;;;;;;;60.58;51.22;;;15.40;1.00;;;;;;6146683;23;20588;-80
2023/05/23 03:16:35;;;;;;;58.17;49.55;;;15.40;1.00;;;;;;6120168;23;20195;-79
2023/05/23 03:19:01;;;;;;;55.00;48.25;;;15.30;1.00;;;;;;6146764;23;20180;-80
2023/05/23 03:21:26;;;;;;;58.78;49.05;;;15.30;1.00;;;;;;6146442;23;20166;-79
2023/05/23 03:23:52;;;;;;;60.85;50.38;;;15.20;1.00;;;;;;6120435;23;20159;-79
2023/05/23 03:26:18;;;;;;;52.90;46.10;;;15.50;1.00;;;;;;6120423;23;20191;-80
2023/05/23 03:28:43;;;;;;;56.17;47.42;;;15.40;1.00;;;;;;6146799;23;20152;-80
2023/05/23 03:31:09;;;;;;;59.30;47.15;;;15.20;1.00;;;;;;6121778;23;20239;-79
2023/05/23 03:33:35;;;;;;;54.88;46.13;;;15.90;1.00;;;;;;6146769;23;20603;-82
2023/05/23 03:36:00;;;;;;;56.08;46.38;;;15.80;1.00;;;;;;6145587;23;20160;-82
2023/05/23 03:38:26;;;;;;;51.53;43.90;;;15.10;1.00;;;;;;6144510;23;20194;-81
2023/05/23 03:40:52;;;;;;;50.70;42.83;;;15.10;1.00;;;;;;6118428;23;20175;-82
2023/05/23 03:43:18;;;;;;;51.53;43.78;;;15.40;1.00;;;;;;6118275;23;20186;-81
2023/05/23 03:45:44;;;;;;;50.90;42.75;;;15.00;1.00;;;;;;6144936;23;20187;-81
2023/05/23 03:48:10;;;;;;;42.80;38.20;;;14.90;1.00;;;;;;6144399;23;20630;-81
2023/05/23 03:50:35;;;;;;;42.67;35.58;;;14.70;1.00;;;;;;6144615;23;20701;-81
2023/05/23 03:53:01;;;;;;;38.63;33.50;;;14.80;1.00;;;;;;6118447;23;20246;-82
2023/05/23 03:55:26;;;;;;;36.25;32.17;;;15.40;99.90;;;;;;6144340;23;20152;-81
2023/05/23 03:57:52;;;;;;;34.58;31.10;;;15.70;99.90;;;;;;6118283;23;20595;-81
2023/05/23 04:00:18;;;;;;;32.25;29.00;;;15.30;99.90;;;;;;6118514;23;20679;-81
2023/05/23 04:02:45;;;;;;;29.73;26.70;;;14.80;1.00;;;;;;6118440;23;20167;-81
2023/05/23 04:05:11;;;;;;;29.02;25.95;;;14.80;99.90;;;;;;6117845;23;20170;-82
2023/05/23 04:07:37;;;;;;;27.50;24.70;;;14.80;99.90;;;;;;6118624;23;20187;-81
2023/05/23 04:10:03;;;;;;;27.45;24.70;;;14.70;99.90;;;;;;6118187;23;20183;-80
2023/05/23 04:12:31;;;;;;;27.40;24.52;;;14.70;1.00;;;;;;6118180;23;20155;-81
2023/05/23 04:14:57;;;;;;;27.73;24.92;;;14.60;1.00;;;;;;6118227;23;20163;-81
2023/05/23 04:17:23;;;;;;;28.02;25.10;;;14.60;99.90;;;;;;6144725;23;20499;-82
2023/05/23 04:19:50;;;;;;;26.15;23.75;;;14.70;1.00;;;;;;6118297;23;20187;-81
2023/05/23 04:22:15;;;;;;;26.23;23.73;;;14.90;99.90;;;;;;6118223;23;20163;-81
2023/05/23 04:24:41;;;;;;;27.38;24.65;;;14.60;99.90;;;;;;6143873;23;20163;-81
2023/05/23 04:27:07;;;;;;;27.52;24.70;;;14.60;1.00;;;;;;6144661;23;20248;-81
2023/05/23 04:29:34;;;;;;;26.20;23.73;;;14.60;1.00;;;;;;6143956;23;20483;-81
2023/05/23 04:32:01;;;;;;;26.15;23.55;;;15.30;99.90;;;;;;6144140;23;20176;-80
2023/05/23 04:34:26;;;;;;;25.60;23.02;;;14.60;1.00;;;;;;6118159;23;20479;-81
2023/05/23 04:36:53;;;;;;;24.55;22.23;;;14.60;12.80;;;;;;6143834;23;20217;-82
2023/05/23 04:39:19;;;;;;;24.40;21.80;;;14.70;1.00;;;;;;6144332;23;20171;-81
2023/05/23 04:41:45;;;;;;;23.55;21.13;;;14.70;1.00;;;;;;6143942;23;20159;-81
2023/05/23 04:44:11;;;;;;;22.20;20.00;;;14.70;1.00;;;;;;6144161;23;20233;-81
2023/05/23 04:46:40;;;;;;;23.05;20.48;;;14.70;84.20;;;;;;6117865;23;20210;-82
2023/05/23 04:49:09;;;;;;;21.80;19.58;;;14.70;1.00;;;;;;6118150;23;20271;-82
2023/05/23 04:51:34;;;;;;;22.70;20.40;;;14.70;1.00;;;;;;6117785;23;20160;-81
2023/05/23 04:54:01;;;;;;;21.52;19.30;;;14.80;1.00;;;;;;6144170;23;20158;-81
2023/05/23 04:56:27;;;;;;;19.67;17.75;;;15.70;1.00;;;;;;6144449;23;20166;-80
2023/05/23 04:58:53;;;;;;;19.00;17.23;;;14.90;32.00;;;;;;6118179;23;20187;-81
2023/05/23 05:01:18;;;;;;;19.92;18.02;;;15.20;1.00;;;;;;6118104;23;20222;-81
2023/05/23 05:03:44;;;;;;;18.67;16.92;;;15.00;99.90;;;;;;6119677;23;20246;-82
2023/05/23 05:06:10;;;;;;;18.80;17.10;;;15.90;1.00;;;;;;6120676;23;20709;-80
2023/05/23 05:08:36;;;;;;;18.20;16.48;;;15.10;99.90;;;;;;6120119;23;20483;-81
2023/05/23 05:11:01;;;;;;;17.85;16.30;;;15.00;99.90;;;;;;6120080;23;20191;-82
2023/05/23 05:13:27;;;;;;;18.50;16.77;;;15.00;1.00;;;;;;6119824;23;20166;-81
2023/05/23 05:15:53;;;;;;;19.10;17.30;;;15.40;55.80;;;;;;6145889;23;20222;-81
2023/05/23 05:18:18;;;;;;;19.65;17.70;;;15.50;1.00;;;;;;6145926;23;20628;-82
2023/05/23 05:20:44;;;;;;;18.50;16.58;;;15.00;1.00;;;;;;6146358;23;20598;-81
2023/05/23 05:23:10;;;;;;;19.10;16.83;;;15.00;99.90;;;;;;6119718;23;20882;-81
2023/05/23 05:25:37;;;;;;;18.10;16.30;;;15.00;99.90;;;;;;6119581;23;20668;-81
2023/05/23 05:28:04;;;;;;;18.10;16.35;;;15.00;1.00;;;;;;6146320;23;20550;-80
2023/05/23 05:30:34;;;;;;;18.42;16.73;;;15.70;99.90;;;;;;6119582;23;20176;-81
2023/05/23 05:33:03;;;;;;;18.08;16.38;;;15.30;99.90;;;;;;6119436;23;20222;-81
2023/05/23 05:35:37;;;;;;;16.88;15.18;;;15.20;99.90;;;;;;6119359;23;20698;-81
2023/05/23 05:38:03;;;;;;;16.77;15.07;;;15.20;1.00;;;;;;6145942;23;20175;-81
2023/05/23 05:40:29;;;;;;;17.08;15.48;;;15.20;1.00;;;;;;6145653;23;20199;-81
2023/05/23 05:42:55;;;;;;;14.95;13.55;;;15.20;1.00;;;;;;6119888;23;20163;-81
2023/05/23 05:45:22;;;;;;;15.70;14.25;;;15.60;99.90;;;;;;6119970;23;20206;-80
2023/05/23 05:47:47;;;;;;;13.98;12.68;;;15.10;1.00;;;;;;6119511;23;20187;-81
2023/05/23 05:50:13;;;;;;;13.43;12.23;;;15.10;1.00;;;;;;6119598;23;20184;-81
2023/05/23 05:52:39;;;;;;;13.90;12.55;;;15.00;1.00;;;;;;6146024;23;20161;-81
2023/05/23 05:55:06;;;;;;;12.88;11.68;;;14.90;1.00;;;;;;6119915;23;20160;-81
2023/05/23 05:57:32;;;;;;;12.98;11.77;;;15.00;1.00;;;;;;6119825;23;20195;-82
2023/05/23 05:59:58;;;;;;;12.52;11.18;;;15.10;1.00;;;;;;6146580;23;20183;-81
2023/05/23 06:02:23;;;;;;;13.27;11.88;;;15.20;1.00;;;;;;6119400;23;20164;-81
2023/05/23 06:04:49;;;;;;;11.32;10.23;;;15.20;99.90;;;;;;6145701;23;20164;-81
2023/05/23 06:07:14;;;;;;;11.52;10.43;;;15.50;99.90;;;;;;6119825;23;20187;-81
2023/05/23 06:09:40;;;;;;;10.90;9.90;;;15.30;1.00;;;;;;6119343;23;20179;-81
2023/05/23 06:12:06;;;;;;;10.68;9.63;;;15.60;99.90;;;;;;6145742;23;20152;-81
2023/05/23 06:14:32;;;;;;;10.50;9.43;;;15.20;1.00;;;;;;6145009;23;20152;-81
2023/05/23 06:16:57;;;;;;;10.60;9.43;;;15.20;1.00;;;;;;6119547;23;20294;-80
2023/05/23 06:19:23;;;;;;;10.18;9.27;;;15.20;1.00;;;;;;6119217;23;20215;-81
2023/05/23 06:21:49;;;;;;;11.48;10.35;;;15.20;1.00;;;;;;6119502;23;20167;-81
2023/05/23 06:24:15;;;;;;;10.98;9.98;;;15.80;1.00;;;;;;6145120;23;20152;-81
2023/05/23 06:26:40;;;;;;;11.45;10.18;;;15.10;99.90;;;;;;6120386;23;20215;-82
2023/05/23 06:29:06;;;;;;;10.52;9.52;;;15.20;1.00;;;;;;6145916;23;20172;-82
2023/05/23 06:31:31;;;;;;;10.85;9.75;;;15.60;20.00;;;;;;6119580;23;20502;-81
2023/05/23 06:33:57;;;;;;;12.05;10.95;;;16.00;1.00;;;;;;6145294;23;20640;-81
2023/05/23 06:36:22;;;;;;;12.00;10.57;;;15.20;84.20;;;;;;6118681;23;20167;-81
2023/05/23 06:38:48;;;;;;;11.65;10.00;;;15.10;99.90;;;;;;6119151;23;20279;-81
2023/05/23 06:41:13;;;;;;;11.48;10.38;;;16.00;1.00;;;;;;6119293;23;20167;-80
2023/05/23 06:43:39;;;;;;;10.70;9.60;;;15.80;99.90;;;;;;6119324;23;20187;-81
2023/05/23 06:46:05;;;;;;;11.15;10.00;;;15.10;64.10;;;;;;6118617;23;20247;-81
2023/05/23 06:48:31;;;;;;;9.98;8.98;;;15.10;99.90;;;;;;6145143;23;20162;-81
2023/05/23 06:50:56;;;;;;;11.00;9.90;;;15.00;99.90;;;;;;6145097;23;20183;-81
2023/05/23 06:53:22;;;;;;;9.85;8.75;;;15.10;19.90;;;;;;6119111;23;20160;-81
2023/05/23 06:55:47;;;;;;;10.75;9.75;;;15.00;99.90;;;;;;6144901;23;20602;-81
2023/05/23 06:58:13;;;;;;;11.43;10.32;;;14.80;99.90;;;;;;6119255;23;20618;-81
2023/05/23 07:00:39;;;;;;;11.10;9.75;;;14.70;1.00;;;;;;6144889;23;20182;-80
2023/05/23 07:03:06;;;;;;;10.38;9.25;;;14.80;99.90;;;;;;6119068;23;20168;-80
2023/05/23 07:05:33;;;;;;;10.30;9.30;;;14.80;1.00;;;;;;6145096;23;20159;-81
2023/05/23 07:07:58;;;;;;;11.68;9.38;;;14.70;99.90;;;;;;6144794;23;20262;-82
2023/05/23 07:10:25;;;;;;;9.25;8.38;;;14.60;1.00;;;;;;6119084;23;20567;-81
2023/05/23 07:12:50;;;;;;;9.77;8.88;;;14.70;99.90;;;;;;6118723;23;20163;-81
2023/05/23 07:15:16;;;;;;;10.02;8.95;;;14.60;99.90;;;;;;6145018;23;20236;-82
2023/05/23 07:17:41;;;;;;;10.48;9.32;;;14.50;1.00;;;;;;6145156;23;20171;-82
2023/05/23 07:20:07;;;;;;;9.43;8.57;;;14.60;1.00;;;;;;6118780;23;20190;-82
2023/05/23 07:22:33;;;;;;;9.77;8.73;;;14.70;1.00;;;;;;6144949;23;20170;-81
2023/05/23 07:24:58;;;;;;;9.35;8.45;;;14.70;1.00;;;;;;6144270;23;20164;-81
2023/05/23 07:27:25;;;;;;;8.07;7.38;;;14.70;1.00;;;;;;6118952;23;20183;-81
2023/05/23 07:29:51;;;;;;;8.68;7.88;;;14.60;99.90;;;;;;6144750;23;20238;-81
2023/05/23 07:32:17;;;;;;;9.05;7.85;;;14.70;99.90;;;;;;6118929;23;20588;-82
2023/05/23 07:34:42;;;;;;;7.82;7.03;;;14.70;1.00;;;;;;6144427;23;20186;-81
2023/05/23 07:37:08;;;;;;;8.32;7.63;;;14.80;99.90;;;;;;6144719;23;20608;-81
2023/05/23 07:39:33;;;;;;;8.38;7.57;;;14.90;1.00;;;;;;6118715;23;20179;-81
2023/05/23 07:41:59;;;;;;;7.88;7.18;;;14.80;99.90;;;;;;6118913;23;20214;-81
2023/05/23 07:44:25;;;;;;;7.65;7.00;;;15.20;99.90;;;;;;6118353;23;20168;-81
2023/05/23 07:46:51;;;;;;;7.00;6.40;;;15.00;1.00;;;;;;6144856;23;20182;-82
2023/05/23 07:49:16;;;;;;;7.25;6.55;;;15.80;99.90;;;;;;6145043;23;20183;-82
2023/05/23 07:51:42;;;;;;;7.28;6.55;;;15.10;1.00;;;;;;6144514;23;20547;-81
2023/05/23 07:54:08;;;;;;;7.18;6.57;;;15.00;1.00;;;;;;6144797;23;20162;-82
2023/05/23 07:56:33;;;;;;;6.70;6.10;;;15.00;1.00;;;;;;6144491;23;20451;-81
2023/05/23 07:58:59;;;;;;;6.45;5.85;;;15.00;99.90;;;;;;6118719;23;20184;-81
2023/05/23 08:01:24;;;;;;;6.05;5.53;;;15.80;1.00;;;;;;6118231;23;20168;-81
2023/05/23 08:03:50;;;;;;;6.20;5.70;;;15.90;1.00;;;;;;6144606;23;20226;-80
2023/05/23 08:06:15;;;;;;;6.28;5.68;;;16.00;31.30;;;;;;6144100;23;20179;-81
2023/05/23 08:08:42;;;;;;;6.15;5.65;;;15.00;99.90;;;;;;6118621;23;20179;-80
2023/05/23 08:11:08;;;;;;;6.68;6.07;;;14.90;99.90;;;;;;6118535;23;20164;-80
2023/05/23 08:13:33;;;;;;;6.63;6.03;;;15.30;1.00;;;;;;6118357;23;20170;-81
2023/05/23 08:15:59;;;;;;;6.65;6.05;;;15.30;99.90;;;;;;6144748;23;20156;-80
2023/05/23 08:18:25;;;;;;;6.70;6.20;;;14.80;71.50;;;;;;6144513;23;20223;-81
2023/05/23 08:20:50;;;;;;;6.15;5.60;;;14.80;1.00;;;;;;6144500;23;20175;-81
2023/05/23 08:23:16;;;;;;;6.28;5.78;;;14.80;1.00;;;;;;6144180;23;20235;-81
2023/05/23 08:25:42;;;;;;;6.10;5.60;;;14.80;99.90;;;;;;6118461;23;20163;-81
2023/05/23 08:28:08;;;;;;;6.75;6.25;;;14.80;99.90;;;;;;6144841;23;20635;-81
2023/05/23 08:30:34;;;;;;;6.38;5.88;;;14.70;99.90;;;;;;6118367;23;20183;-80
2023/05/23 08:33:03;;;;;;;6.93;6.32;;;14.70;1.00;;;;;;6118142;23;20519;-80
2023/05/23 08:35:33;;;;;;;6.38;5.88;;;14.70;90.20;;;;;;6144434;23;20214;-80
2023/05/23 08:38:00;;;;;;;6.18;5.68;;;14.70;99.90;;;;;;6145001;23;20167;-80
2023/05/23 08:40:28;;;;;;;6.28;5.78;;;14.70;99.90;;;;;;6118123;23;20207;-80
2023/05/23 08:42:53;;;;;;;6.07;5.57;;;14.80;1.00;;;;;;6144527;23;20563;-79
2023/05/23 08:45:20;;;;;;;5.75;5.35;;;14.90;99.90;;;;;;6143959;23;20185;-81
2023/05/23 08:47:46;;;;;;;5.10;4.60;;;14.80;99.90;;;;;;6144359;23;20563;-81
2023/05/23 08:50:13;;;;;;;4.97;4.57;;;14.50;99.90;;;;;;6118084;23;20180;-81
2023/05/23 08:52:56;;;;;;;5.38;4.88;;;14.60;99.90;;;;;;6144166;23;20159;-81
2023/05/23 08:55:26;;;;;;;5.20;4.70;;;14.60;99.90;;;;;;6144456;23;20223;-81
2023/05/23 08:57:59;;;;;;;5.32;4.82;;;14.60;1.00;;;;;;6118607;23;20201;-81
2023/05/23 09:00:26;;;;;;;5.13;4.72;;;14.50;1.00;;;;;;6118078;23;20180;-79
2023/05/23 09:02:53;;;;;;;5.05;4.65;;;14.40;99.90;;;;;;6144797;23;20159;-81
2023/05/23 09:05:19;;;;;;;5.75;5.28;;;14.40;1.00;;;;;;6117862;23;20343;-80
2023/05/23 09:07:46;;;;;;;6.38;5.80;;;14.30;1.00;;;;;;6144514;23;20187;-80
2023/05/23 09:10:13;;;;;;;5.22;4.82;;;14.40;1.00;;;;;;6118316;23;20182;-80
2023/05/23 09:12:39;;;;;;;6.05;5.63;;;14.40;99.90;;;;;;6117697;23;20480;-80
2023/05/23 09:15:08;;;;;;;6.82;6.32;;;14.70;1.00;;;;;;6144307;23;20156;-81
2023/05/23 09:17:35;;;;;;;6.43;5.93;;;14.40;1.00;;;;;;6118059;23;20242;-81
2023/05/23 09:20:09;;;;;;;6.88;6.28;;;14.40;99.90;;;;;;6117851;23;20192;-81
2023/05/23 09:22:35;;;;;;;8.45;7.65;;;14.30;1.00;;;;;;6144206;23;20147;-79
2023/05/23 09:25:01;;;;;;;9.23;8.32;;;14.30;99.90;;;;;;6117992;23;20168;-81
2023/05/23 09:27:26;;;;;;;9.05;8.25;;;14.20;99.90;;;;;;6118073;23;20195;-81
2023/05/23 09:29:52;;;;;;;9.25;8.40;;;14.10;99.90;;;;;;6117758;23;20207;-80
2023/05/23 09:32:19;;;;;;;10.52;9.63;;;14.50;1.00;;;;;;6144324;23;20750;-81
2023/05/23 09:34:58;;;;;;;10.23;9.32;;;14.30;99.90;;;;;;6118131;23;20171;-81
2023/05/23 09:37:44;;;;;;;10.80;9.55;;;14.10;1.00;;;;;;6117941;23;20722;-81
2023/05/23 09:40:12;;;;;;;9.32;8.63;;;14.10;99.90;;;;;;6143779;23;20644;-81
2023/05/23 09:42:45;;;;;;;11.32;10.20;;;14.20;53.70;;;;;;6143871;23;20598;-79
2023/05/23 09:45:15;;;;;;;11.02;9.93;;;14.20;99.90;;;;;;6144019;23;20639;-80
2023/05/23 09:47:50;;;;;;;11.23;10.10;;;14.10;99.90;;;;;;6143916;23;20228;-81
2023/05/23 09:50:16;;;;;;;12.95;11.63;;;14.10;1.00;;;;;;6120008;23;20317;-79
2023/05/23 09:52:42;;;;;;;10.93;9.93;;;14.10;1.00;;;;;;6119754;23;20187;-81
2023/05/23 09:55:08;;;;;;;10.63;9.70;;;14.20;1.00;;;;;;6119468;23;20421;-80
2023/05/23 09:57:38;;;;;;;9.63;8.68;;;14.10;1.00;;;;;;6120230;23;20678;-80
2023/05/23 10:00:05;;;;;;;9.32;8.43;;;14.20;1.00;;;;;;6119615;23;20208;-81
2023/05/23 10:03:01;;;;;;;9.32;8.43;;;14.20;1.00;;;;;;6119490;23;20475;-81
2023/05/23 10:05:45;;;;;;;8.95;8.05;;;14.20;1.00;;;;;;6146266;23;20320;-79
2023/05/23 10:08:28;;;;;;;8.82;7.93;;;14.30;74.00;;;;;;6119757;23;20197;-81
2023/05/23 10:10:57;;;;;;;8.23;7.43;;;14.20;1.00;;;;;;6145899;23;20171;-79
2023/05/23 10:13:27;;;;;;;8.27;7.43;;;14.20;1.00;;;;;;6119366;23;20186;-79
2023/05/23 10:16:06;;;;;;;8.05;7.30;;;14.10;1.00;;;;;;6145571;23;20156;-81
2023/05/23 10:18:43;;;;;;;7.82;7.13;;;14.10;1.00;;;;;;6146305;23;20139;-82
2023/05/23 10:21:11;;;;;;;9.20;8.27;;;14.20;1.00;;;;;;6146037;23;20163;-81
2023/05/23 10:23:37;;;;;;;9.93;9.02;;;14.10;99.90;;;;;;6119261;23;20186;-80
2023/05/23 10:26:04;;;;;;;9.88;8.68;;;14.10;1.00;;;;;;6145474;23;20206;-78
2023/05/23 10:28:31;;;;;;;8.57;7.75;;;14.10;99.90;;;;;;6119569;23;20199;-80
2023/05/23 10:30:58;;;;;;;9.55;8.63;;;14.60;1.00;;;;;;6119179;23;20206;-83
2023/05/23 10:33:24;;;;;;;8.85;7.95;;;14.10;1.00;;;;;;6119415;23;20616;-81
2023/05/23 10:36:03;;;;;;;8.35;7.47;;;13.90;1.00;;;;;;6145635;23;20160;-81
2023/05/23 10:38:35;;;;;;;8.07;7.28;;;14.00;41.30;;;;;;6119057;23;20179;-81
2023/05/23 10:41:22;;;;;;;8.60;7.78;;;14.00;1.00;;;;;;6145287;23;20148;-80
2023/05/23 10:44:05;;;;;;;8.02;7.30;;;13.90;36.30;;;;;;6119483;23;20147;-80
2023/05/23 10:46:53;;;;;;;7.85;7.10;;;13.90;1.00;;;;;;6118920;23;20183;-79
2023/05/23 10:49:20;;;;;;;7.93;7.15;;;13.70;99.90;;;;;;6119234;23;20187;-80
2023/05/23 10:51:52;;;;;;;7.40;6.70;;;13.90;84.10;;;;;;6145394;23;20152;-81
2023/05/23 10:54:21;;;;;;;9.30;8.38;;;13.70;1.00;;;;;;6119322;23;20147;-81
2023/05/23 10:57:01;;;;;;;10.82;8.73;;;13.60;75.90;;;;;;6119157;23;20159;-81
2023/05/23 10:59:27;;;;;;;8.77;7.88;;;13.50;99.90;;;;;;6118844;23;20179;-80
2023/05/23 11:01:54;;;;;;;8.20;6.88;;;13.50;1.00;;;;;;6119125;23;20167;-80
2023/05/23 11:04:29;;;;;;;9.18;8.25;;;13.60;7.60;;;;;;6119038;23;20221;-81
2023/05/23 11:06:55;;;;;;;9.75;8.68;;;13.60;1.00;;;;;;6118978;23;20183;-80
2023/05/23 11:09:22;;;;;;;12.48;9.10;;;13.60;44.60;;;;;;6145161;23;20175;-80
2023/05/23 11:11:53;;;;;;;12.00;9.48;;;13.50;1.00;;;;;;6119116;23;20160;-81
2023/05/23 11:14:29;;;;;;;12.60;10.20;;;13.50;1.00;;;;;;6119224;23;20246;-82
2023/05/23 11:16:55;;;;;;;14.98;9.48;;;13.40;58.70;;;;;;6118589;23;20187;-81
2023/05/23 11:19:24;;;;;;;12.75;8.98;;;13.40;99.90;;;;;;6118934;23;20250;-81
2023/05/23 11:21:52;;;;;;;11.65;8.57;;;13.50;99.90;;;;;;6118830;23;20678;-79
2023/05/23 11:24:18;;;;;;;11.57;8.25;;;13.50;29.10;;;;;;6119088;23;20159;-80
2023/05/23 11:26:59;;;;;;;13.43;8.82;;;13.40;99.90;;;;;;6144434;23;20180;-81
2023/05/23 11:29:25;;;;;;;9.40;7.90;;;13.30;99.90;;;;;;6144921;23;20202;-80
2023/05/23 11:31:51;;;;;;;12.00;7.70;;;13.30;99.90;;;;;;6118642;23;20432;-80
2023/05/23 11:34:17;;;;;;;10.82;7.93;;;13.20;1.00;;;;;;6144972;23;20152;-81
2023/05/23 11:36:43;;;;;;;9.48;7.05;;;13.20;99.90;;;;;;6144334;23;20167;-81
2023/05/23 11:39:09;;;;;;;9.18;8.20;;;13.20;99.90;;;;;;6145084;23;20314;-81
2023/05/23 11:41:35;;;;;;;10.25;7.90;;;13.10;99.90;;;;;;6118560;23;20221;-80
2023/05/23 11:44:00;;;;;;;10.02;7.40;;;13.00;1.00;;;;;;6145678;23;20455;-81
2023/05/23 11:46:26;;;;;;;9.77;6.70;;;13.00;1.00;;;;;;6118680;23;20191;-79
2023/05/23 11:48:52;;;;;;;9.88;8.15;;;12.90;99.90;;;;;;6118442;23;20183;-81
2023/05/23 11:51:20;;;;;;;11.10;7.70;;;13.00;99.90;;;;;;6118722;23;20478;-81
2023/05/23 11:53:46;;;;;;;9.30;7.13;;;12.90;1.00;;;;;;6118478;23;20695;-79
2023/05/23 11:56:14;;;;;;;10.30;7.70;;;13.00;1.00;;;;;;6118663;23;20159;-80
2023/05/23 11:58:40;;;;;;;13.02;7.30;;;13.00;99.90;;;;;;6118747;23;20164;-81
2023/05/23 12:01:06;;;;;;;10.05;6.68;;;12.90;1.00;;;;;;6118294;23;20159;-80
2023/05/23 12:03:46;;;;;;;10.18;7.05;;;12.90;1.00;;;;;;6118683;23;20243;-80
2023/05/23 12:06:18;;;;;;;10.63;6.78;;;12.80;1.00;;;;;;6144585;23;20438;-80
2023/05/23 12:08:43;;;;;;;9.23;6.97;;;12.90;1.00;;;;;;6118444;23;20388;-80
2023/05/23 12:11:10;;;;;;;8.55;5.75;;;12.90;99.90;;;;;;6118401;23;20163;-82
2023/05/23 12:13:36;;;;;;;7.60;5.78;;;12.70;1.00;;;;;;6144467;23;20159;-83
2023/05/23 12:16:03;;;;;;;8.32;5.55;;;12.70;1.00;;;;;;6118247;23;20163;-81
2023/05/23 12:18:32;;;;;;;9.82;5.38;;;12.70;1.00;;;;;;6118301;23;20171;-80
2023/05/23 12:21:02;;;;;;;8.73;5.43;;;12.70;99.90;;;;;;6144740;23;20174;-79
2023/05/23 12:23:28;;;;;;;8.07;5.13;;;13.50;14.10;;;;;;6145050;23;20159;-80
2023/05/23 12:25:55;;;;;;;11.80;5.68;;;12.80;1.00;;;;;;6144284;23;20163;-80
2023/05/23 12:28:34;;;;;;;8.90;5.85;;;12.80;1.00;;;;;;6144445;23;20632;-82
2023/05/23 12:31:11;;;;;;;7.35;5.53;;;12.70;99.90;;;;;;6118377;23;20408;-81
2023/05/23 12:33:42;;;;;;;8.02;5.30;;;12.60;98.70;;;;;;6118425;23;20151;-80
2023/05/23 12:36:08;;;;;;;7.90;5.18;;;12.60;1.00;;;;;;6144454;23;20171;-81
2023/05/23 12:38:39;;;;;;;8.32;5.43;;;12.60;44.10;;;;;;6118168;23;20175;-80
2023/05/23 12:41:14;;;;;;;9.32;5.68;;;12.60;1.00;;;;;;6117916;23;20503;-81